sensor_id;sensor_type;location;lat;lon;timestamp;temperature;humidity
66708;DHT22;53622;0.000;0.000;2023-02-03T00:01:10;17.90;47.10
66708;DHT22;53622;0.000;0.000;2023-02-03T00:03:39;17.90;47.10
66708;DHT22;53622;0.000;0.000;2023-02-03T00:06:08;17.90;47.10
66708;DHT22;53622;0.000;0.000;2023-02-03T00:08:37;17.90;47.10
66708;DHT22;53622;0.000;0.000;2023-02-03T00:11:07;17.80;47.10
66708;DHT22;53622;0.000;0.000;2023-02-03T00:13:36;17.80;47.10
66708;DHT22;53622;0.000;0.000;2023-02-03T00:16:05;17.80;47.10
66708;DHT22;53622;0.000;0.000;2023-02-03T00:18:36;17.80;47.10
66708;DHT22;53622;0.000;0.000;2023-02-03T00:21:06;17.80;47.10
66708;DHT22;53622;0.000;0.000;2023-02-03T00:23:35;17.90;47.10
66708;DHT22;53622;0.000;0.000;2023-02-03T00:26:06;17.80;47.10
66708;DHT22;53622;0.000;0.000;2023-02-03T00:28:36;17.80;47.10
66708;DHT22;53622;0.000;0.000;2023-02-03T00:31:12;17.80;47.10
66708;DHT22;53622;0.000;0.000;2023-02-03T00:33:43;17.80;47.10
66708;DHT22;53622;0.000;0.000;2023-02-03T00:36:13;17.80;47.10
66708;DHT22;53622;0.000;0.000;2023-02-03T00:38:42;17.80;47.10
66708;DHT22;53622;0.000;0.000;2023-02-03T00:41:11;17.70;47.10
66708;DHT22;53622;0.000;0.000;2023-02-03T00:43:40;17.70;47.10
66708;DHT22;53622;0.000;0.000;2023-02-03T00:46:10;17.70;47.20
66708;DHT22;53622;0.000;0.000;2023-02-03T00:48:39;17.70;47.20
66708;DHT22;53622;0.000;0.000;2023-02-03T00:51:09;17.70;47.20
66708;DHT22;53622;0.000;0.000;2023-02-03T00:53:39;17.70;47.20
66708;DHT22;53622;0.000;0.000;2023-02-03T00:56:08;17.70;47.20
66708;DHT22;53622;0.000;0.000;2023-02-03T00:58:39;17.70;47.20
66708;DHT22;53622;0.000;0.000;2023-02-03T01:01:08;17.70;47.20
66708;DHT22;53622;0.000;0.000;2023-02-03T01:03:38;17.70;47.20
66708;DHT22;53622;0.000;0.000;2023-02-03T01:06:10;17.70;47.20
66708;DHT22;53622;0.000;0.000;2023-02-03T01:08:40;17.70;47.30
66708;DHT22;53622;0.000;0.000;2023-02-03T01:11:11;17.70;47.20
66708;DHT22;53622;0.000;0.000;2023-02-03T01:13:40;17.60;47.20
66708;DHT22;53622;0.000;0.000;2023-02-03T01:16:11;17.60;47.20
66708;DHT22;53622;0.000;0.000;2023-02-03T01:18:42;17.70;47.20
66708;DHT22;53622;0.000;0.000;2023-02-03T01:21:15;17.70;47.30
66708;DHT22;53622;0.000;0.000;2023-02-03T01:23:44;17.60;47.20
66708;DHT22;53622;0.000;0.000;2023-02-03T01:26:14;17.60;47.20
66708;DHT22;53622;0.000;0.000;2023-02-03T01:28:49;17.60;47.20
66708;DHT22;53622;0.000;0.000;2023-02-03T01:31:21;17.60;47.20
66708;DHT22;53622;0.000;0.000;2023-02-03T01:33:51;17.60;47.30
66708;DHT22;53622;0.000;0.000;2023-02-03T01:36:24;17.60;47.20
66708;DHT22;53622;0.000;0.000;2023-02-03T01:38:54;17.60;47.30
66708;DHT22;53622;0.000;0.000;2023-02-03T01:41:26;17.50;47.30
66708;DHT22;53622;0.000;0.000;2023-02-03T01:43:57;17.50;47.30
66708;DHT22;53622;0.000;0.000;2023-02-03T01:46:32;17.50;47.30
66708;DHT22;53622;0.000;0.000;2023-02-03T01:49:07;17.60;47.30
66708;DHT22;53622;0.000;0.000;2023-02-03T01:51:41;17.50;47.30
66708;DHT22;53622;0.000;0.000;2023-02-03T01:54:14;17.50;47.30
66708;DHT22;53622;0.000;0.000;2023-02-03T01:56:49;17.50;47.30
66708;DHT22;53622;0.000;0.000;2023-02-03T01:59:21;17.40;47.30
66708;DHT22;53622;0.000;0.000;2023-02-03T02:01:52;17.50;47.30
66708;DHT22;53622;0.000;0.000;2023-02-03T02:04:25;17.50;47.30
66708;DHT22;53622;0.000;0.000;2023-02-03T02:06:58;17.50;47.40
66708;DHT22;53622;0.000;0.000;2023-02-03T02:09:28;17.50;47.30
66708;DHT22;53622;0.000;0.000;2023-02-03T02:11:57;17.40;47.30
66708;DHT22;53622;0.000;0.000;2023-02-03T02:14:26;17.40;47.40
66708;DHT22;53622;0.000;0.000;2023-02-03T02:17:00;17.40;47.40
66708;DHT22;53622;0.000;0.000;2023-02-03T02:20:08;17.40;47.40
66708;DHT22;53622;0.000;0.000;2023-02-03T02:23:00;17.40;47.40
66708;DHT22;53622;0.000;0.000;2023-02-03T02:25:52;17.40;47.40
66708;DHT22;53622;0.000;0.000;2023-02-03T02:32:00;17.40;47.40
66708;DHT22;53622;0.000;0.000;2023-02-03T02:34:43;17.30;47.40
66708;DHT22;53622;0.000;0.000;2023-02-03T02:37:23;17.30;47.50
66708;DHT22;53622;0.000;0.000;2023-02-03T02:39:59;17.30;47.40
66708;DHT22;53622;0.000;0.000;2023-02-03T02:42:37;17.30;47.40
66708;DHT22;53622;0.000;0.000;2023-02-03T02:45:13;17.30;47.40
66708;DHT22;53622;0.000;0.000;2023-02-03T02:47:45;17.30;47.40
66708;DHT22;53622;0.000;0.000;2023-02-03T02:50:19;17.30;47.40
66708;DHT22;53622;0.000;0.000;2023-02-03T02:52:52;17.30;47.40
66708;DHT22;53622;0.000;0.000;2023-02-03T02:55:25;17.30;47.40
66708;DHT22;53622;0.000;0.000;2023-02-03T02:58:02;17.30;47.40
66708;DHT22;53622;0.000;0.000;2023-02-03T03:00:34;17.30;47.40
66708;DHT22;53622;0.000;0.000;2023-02-03T03:03:13;17.20;47.30
66708;DHT22;53622;0.000;0.000;2023-02-03T03:05:48;17.30;47.40
66708;DHT22;53622;0.000;0.000;2023-02-03T03:08:23;17.20;47.40
66708;DHT22;53622;0.000;0.000;2023-02-03T03:10:56;17.20;47.30
66708;DHT22;53622;0.000;0.000;2023-02-03T03:13:31;17.20;47.40
66708;DHT22;53622;0.000;0.000;2023-02-03T03:16:03;17.20;47.40
66708;DHT22;53622;0.000;0.000;2023-02-03T03:18:38;17.20;47.40
66708;DHT22;53622;0.000;0.000;2023-02-03T03:21:14;17.20;47.50
66708;DHT22;53622;0.000;0.000;2023-02-03T03:23:47;17.20;47.50
66708;DHT22;53622;0.000;0.000;2023-02-03T03:26:24;17.10;47.40
66708;DHT22;53622;0.000;0.000;2023-02-03T03:29:02;17.20;47.60
66708;DHT22;53622;0.000;0.000;2023-02-03T03:31:33;17.10;47.40
66708;DHT22;53622;0.000;0.000;2023-02-03T03:34:04;17.10;47.40
66708;DHT22;53622;0.000;0.000;2023-02-03T03:36:39;17.10;47.40
66708;DHT22;53622;0.000;0.000;2023-02-03T03:39:14;17.10;47.40
66708;DHT22;53622;0.000;0.000;2023-02-03T03:41:54;17.10;47.40
66708;DHT22;53622;0.000;0.000;2023-02-03T03:44:28;17.10;47.50
66708;DHT22;53622;0.000;0.000;2023-02-03T03:47:03;17.10;47.40
66708;DHT22;53622;0.000;0.000;2023-02-03T03:49:36;17.10;47.40
66708;DHT22;53622;0.000;0.000;2023-02-03T03:52:08;17.10;47.40
66708;DHT22;53622;0.000;0.000;2023-02-03T03:54:40;17.10;47.40
66708;DHT22;53622;0.000;0.000;2023-02-03T03:57:12;17.10;47.40
66708;DHT22;53622;0.000;0.000;2023-02-03T03:59:46;17.00;47.40
66708;DHT22;53622;0.000;0.000;2023-02-03T04:02:17;17.00;47.40
66708;DHT22;53622;0.000;0.000;2023-02-03T04:04:50;17.00;47.40
66708;DHT22;53622;0.000;0.000;2023-02-03T04:07:19;17.00;47.40
66708;DHT22;53622;0.000;0.000;2023-02-03T04:09:48;17.00;47.40
66708;DHT22;53622;0.000;0.000;2023-02-03T04:12:22;17.00;47.40
66708;DHT22;53622;0.000;0.000;2023-02-03T04:14:51;17.00;47.40
66708;DHT22;53622;0.000;0.000;2023-02-03T04:17:20;17.00;47.40
66708;DHT22;53622;0.000;0.000;2023-02-03T04:19:50;17.00;47.40
66708;DHT22;53622;0.000;0.000;2023-02-03T04:22:20;16.90;47.30
66708;DHT22;53622;0.000;0.000;2023-02-03T04:24:49;16.90;47.30
66708;DHT22;53622;0.000;0.000;2023-02-03T04:27:18;16.90;47.30
66708;DHT22;53622;0.000;0.000;2023-02-03T04:29:47;16.90;47.30
66708;DHT22;53622;0.000;0.000;2023-02-03T04:32:17;16.90;47.30
66708;DHT22;53622;0.000;0.000;2023-02-03T04:34:46;16.90;47.30
66708;DHT22;53622;0.000;0.000;2023-02-03T04:37:17;16.90;47.30
66708;DHT22;53622;0.000;0.000;2023-02-03T04:39:48;16.90;47.30
66708;DHT22;53622;0.000;0.000;2023-02-03T04:42:18;16.90;47.30
66708;DHT22;53622;0.000;0.000;2023-02-03T04:44:47;16.90;47.30
66708;DHT22;53622;0.000;0.000;2023-02-03T04:47:17;16.90;47.30
66708;DHT22;53622;0.000;0.000;2023-02-03T04:49:46;16.90;47.30
66708;DHT22;53622;0.000;0.000;2023-02-03T04:52:16;16.80;47.30
66708;DHT22;53622;0.000;0.000;2023-02-03T04:54:45;16.80;47.30
66708;DHT22;53622;0.000;0.000;2023-02-03T04:57:15;16.80;47.30
66708;DHT22;53622;0.000;0.000;2023-02-03T04:59:44;16.80;47.30
66708;DHT22;53622;0.000;0.000;2023-02-03T05:02:13;16.80;47.30
66708;DHT22;53622;0.000;0.000;2023-02-03T05:04:42;16.80;47.30
66708;DHT22;53622;0.000;0.000;2023-02-03T05:07:11;16.80;47.30
66708;DHT22;53622;0.000;0.000;2023-02-03T05:09:42;16.80;47.20
66708;DHT22;53622;0.000;0.000;2023-02-03T05:12:11;16.80;47.30
66708;DHT22;53622;0.000;0.000;2023-02-03T05:14:40;16.80;47.30
66708;DHT22;53622;0.000;0.000;2023-02-03T05:17:09;16.80;47.20
66708;DHT22;53622;0.000;0.000;2023-02-03T05:19:38;16.80;47.30
66708;DHT22;53622;0.000;0.000;2023-02-03T05:22:07;16.80;47.30
66708;DHT22;53622;0.000;0.000;2023-02-03T05:24:36;16.70;47.20
66708;DHT22;53622;0.000;0.000;2023-02-03T05:27:07;16.70;47.80
66708;DHT22;53622;0.000;0.000;2023-02-03T05:29:36;16.70;47.20
66708;DHT22;53622;0.000;0.000;2023-02-03T05:32:05;16.70;47.20
66708;DHT22;53622;0.000;0.000;2023-02-03T05:34:34;16.70;47.20
66708;DHT22;53622;0.000;0.000;2023-02-03T05:37:04;16.70;47.20
66708;DHT22;53622;0.000;0.000;2023-02-03T05:39:33;16.70;47.20
66708;DHT22;53622;0.000;0.000;2023-02-03T05:42:02;16.70;47.30
66708;DHT22;53622;0.000;0.000;2023-02-03T05:44:32;16.70;47.20
66708;DHT22;53622;0.000;0.000;2023-02-03T05:47:01;16.70;47.30
66708;DHT22;53622;0.000;0.000;2023-02-03T05:49:30;16.70;47.30
66708;DHT22;53622;0.000;0.000;2023-02-03T05:51:59;16.60;47.20
66708;DHT22;53622;0.000;0.000;2023-02-03T05:54:28;16.60;47.20
66708;DHT22;53622;0.000;0.000;2023-02-03T05:56:58;16.60;47.20
66708;DHT22;53622;0.000;0.000;2023-02-03T05:59:27;16.60;47.20
66708;DHT22;53622;0.000;0.000;2023-02-03T06:01:58;16.60;47.20
66708;DHT22;53622;0.000;0.000;2023-02-03T06:04:27;16.60;47.10
66708;DHT22;53622;0.000;0.000;2023-02-03T06:06:56;16.60;47.20
66708;DHT22;53622;0.000;0.000;2023-02-03T06:09:25;16.60;47.20
66708;DHT22;53622;0.000;0.000;2023-02-03T06:11:54;16.60;47.50
66708;DHT22;53622;0.000;0.000;2023-02-03T06:14:23;16.70;47.40
66708;DHT22;53622;0.000;0.000;2023-02-03T06:16:52;16.70;47.40
66708;DHT22;53622;0.000;0.000;2023-02-03T06:19:23;16.70;47.30
66708;DHT22;53622;0.000;0.000;2023-02-03T06:21:52;16.80;47.20
66708;DHT22;53622;0.000;0.000;2023-02-03T06:24:21;16.70;47.20
66708;DHT22;53622;0.000;0.000;2023-02-03T06:26:50;16.80;47.10
66708;DHT22;53622;0.000;0.000;2023-02-03T06:29:19;16.80;47.10
66708;DHT22;53622;0.000;0.000;2023-02-03T06:31:49;16.70;47.10
66708;DHT22;53622;0.000;0.000;2023-02-03T06:34:18;16.70;47.10
66708;DHT22;53622;0.000;0.000;2023-02-03T06:36:48;16.70;47.10
66708;DHT22;53622;0.000;0.000;2023-02-03T06:39:17;16.70;47.20
66708;DHT22;53622;0.000;0.000;2023-02-03T06:41:46;16.80;47.30
66708;DHT22;53622;0.000;0.000;2023-02-03T06:44:18;16.80;47.60
66708;DHT22;53622;0.000;0.000;2023-02-03T06:46:47;16.80;47.40
66708;DHT22;53622;0.000;0.000;2023-02-03T06:49:17;16.80;47.60
66708;DHT22;53622;0.000;0.000;2023-02-03T06:51:48;16.80;47.70
66708;DHT22;53622;0.000;0.000;2023-02-03T06:54:19;16.80;47.90
66708;DHT22;53622;0.000;0.000;2023-02-03T06:56:48;16.80;48.10
66708;DHT22;53622;0.000;0.000;2023-02-03T06:59:17;16.80;49.30
66708;DHT22;53622;0.000;0.000;2023-02-03T07:01:46;16.80;49.10
66708;DHT22;53622;0.000;0.000;2023-02-03T07:04:15;16.80;49.10
66708;DHT22;53622;0.000;0.000;2023-02-03T07:06:44;16.80;49.60
66708;DHT22;53622;0.000;0.000;2023-02-03T07:09:15;16.80;50.00
66708;DHT22;53622;0.000;0.000;2023-02-03T07:11:44;16.90;49.90
66708;DHT22;53622;0.000;0.000;2023-02-03T07:14:13;16.90;49.90
66708;DHT22;53622;0.000;0.000;2023-02-03T07:16:43;17.10;50.00
66708;DHT22;53622;0.000;0.000;2023-02-03T07:19:15;17.20;49.50
66708;DHT22;53622;0.000;0.000;2023-02-03T07:21:44;17.20;49.30
66708;DHT22;53622;0.000;0.000;2023-02-03T07:24:15;17.30;49.30
66708;DHT22;53622;0.000;0.000;2023-02-03T07:26:44;17.40;49.20
66708;DHT22;53622;0.000;0.000;2023-02-03T07:29:13;17.40;49.20
66708;DHT22;53622;0.000;0.000;2023-02-03T07:31:43;17.40;49.20
66708;DHT22;53622;0.000;0.000;2023-02-03T07:34:13;17.50;49.20
66708;DHT22;53622;0.000;0.000;2023-02-03T07:36:42;17.60;48.80
66708;DHT22;53622;0.000;0.000;2023-02-03T07:39:11;17.60;48.80
66708;DHT22;53622;0.000;0.000;2023-02-03T07:41:42;17.80;49.10
66708;DHT22;53622;0.000;0.000;2023-02-03T07:44:13;18.00;49.20
66708;DHT22;53622;0.000;0.000;2023-02-03T07:46:42;18.10;49.10
66708;DHT22;53622;0.000;0.000;2023-02-03T07:49:12;18.30;49.00
66708;DHT22;53622;0.000;0.000;2023-02-03T07:51:42;18.40;48.80
66708;DHT22;53622;0.000;0.000;2023-02-03T07:54:11;18.50;48.60
66708;DHT22;53622;0.000;0.000;2023-02-03T07:56:43;18.60;48.50
66708;DHT22;53622;0.000;0.000;2023-02-03T07:59:12;18.70;48.40
66708;DHT22;53622;0.000;0.000;2023-02-03T08:01:41;18.80;48.40
66708;DHT22;53622;0.000;0.000;2023-02-03T08:04:11;18.90;48.40
66708;DHT22;53622;0.000;0.000;2023-02-03T08:06:43;18.90;48.50
66708;DHT22;53622;0.000;0.000;2023-02-03T08:09:12;19.00;48.50
66708;DHT22;53622;0.000;0.000;2023-02-03T08:11:43;18.90;48.50
66708;DHT22;53622;0.000;0.000;2023-02-03T08:14:12;19.00;48.40
66708;DHT22;53622;0.000;0.000;2023-02-03T08:16:41;19.00;48.10
66708;DHT22;53622;0.000;0.000;2023-02-03T08:19:10;19.00;47.90
66708;DHT22;53622;0.000;0.000;2023-02-03T08:21:40;19.00;47.80
66708;DHT22;53622;0.000;0.000;2023-02-03T08:24:10;19.10;47.50
66708;DHT22;53622;0.000;0.000;2023-02-03T08:26:40;19.10;47.30
66708;DHT22;53622;0.000;0.000;2023-02-03T08:29:10;19.10;46.90
66708;DHT22;53622;0.000;0.000;2023-02-03T08:31:40;19.10;46.40
66708;DHT22;53622;0.000;0.000;2023-02-03T08:34:10;19.10;46.20
66708;DHT22;53622;0.000;0.000;2023-02-03T08:36:39;19.10;46.10
66708;DHT22;53622;0.000;0.000;2023-02-03T08:39:10;19.20;46.60
66708;DHT22;53622;0.000;0.000;2023-02-03T08:41:39;19.20;46.60
66708;DHT22;53622;0.000;0.000;2023-02-03T08:44:10;19.20;46.30
66708;DHT22;53622;0.000;0.000;2023-02-03T08:46:40;19.30;46.60
66708;DHT22;53622;0.000;0.000;2023-02-03T08:49:11;19.40;46.60
66708;DHT22;53622;0.000;0.000;2023-02-03T08:51:40;19.50;46.40
66708;DHT22;53622;0.000;0.000;2023-02-03T08:54:11;19.60;46.30
66708;DHT22;53622;0.000;0.000;2023-02-03T08:56:40;19.70;46.30
66708;DHT22;53622;0.000;0.000;2023-02-03T08:59:11;19.80;46.10
66708;DHT22;53622;0.000;0.000;2023-02-03T09:01:41;20.00;46.10
66708;DHT22;53622;0.000;0.000;2023-02-03T09:04:12;20.10;46.10
66708;DHT22;53622;0.000;0.000;2023-02-03T09:06:42;20.20;45.40
66708;DHT22;53622;0.000;0.000;2023-02-03T09:09:11;20.20;45.40
66708;DHT22;53622;0.000;0.000;2023-02-03T09:11:41;20.30;45.40
66708;DHT22;53622;0.000;0.000;2023-02-03T09:14:12;20.30;45.20
66708;DHT22;53622;0.000;0.000;2023-02-03T09:16:41;20.40;45.10
66708;DHT22;53622;0.000;0.000;2023-02-03T09:19:11;20.50;45.00
66708;DHT22;53622;0.000;0.000;2023-02-03T09:21:40;20.50;45.20
66708;DHT22;53622;0.000;0.000;2023-02-03T09:24:15;20.60;44.70
66708;DHT22;53622;0.000;0.000;2023-02-03T09:26:44;20.70;44.30
66708;DHT22;53622;0.000;0.000;2023-02-03T09:29:15;20.70;44.30
66708;DHT22;53622;0.000;0.000;2023-02-03T09:31:44;20.80;44.40
66708;DHT22;53622;0.000;0.000;2023-02-03T09:34:15;20.80;44.40
66708;DHT22;53622;0.000;0.000;2023-02-03T09:36:45;20.90;44.40
66708;DHT22;53622;0.000;0.000;2023-02-03T09:39:14;20.90;44.30
66708;DHT22;53622;0.000;0.000;2023-02-03T09:42:09;20.90;44.30
66708;DHT22;53622;0.000;0.000;2023-02-03T09:44:53;20.90;44.00
66708;DHT22;53622;0.000;0.000;2023-02-03T09:47:31;20.90;44.10
66708;DHT22;53622;0.000;0.000;2023-02-03T09:50:06;20.90;44.20
66708;DHT22;53622;0.000;0.000;2023-02-03T09:52:40;21.00;44.10
66708;DHT22;53622;0.000;0.000;2023-02-03T09:55:21;21.00;44.10
66708;DHT22;53622;0.000;0.000;2023-02-03T09:57:57;21.10;44.20
66708;DHT22;53622;0.000;0.000;2023-02-03T10:00:34;21.10;43.90
66708;DHT22;53622;0.000;0.000;2023-02-03T10:03:07;21.10;43.90
66708;DHT22;53622;0.000;0.000;2023-02-03T10:06:02;21.10;43.90
66708;DHT22;53622;0.000;0.000;2023-02-03T10:08:48;21.10;44.00
66708;DHT22;53622;0.000;0.000;2023-02-03T10:11:34;21.10;44.10
66708;DHT22;53622;0.000;0.000;2023-02-03T10:14:18;21.00;44.00
66708;DHT22;53622;0.000;0.000;2023-02-03T10:17:00;21.10;44.20
66708;DHT22;53622;0.000;0.000;2023-02-03T10:19:37;21.00;44.20
66708;DHT22;53622;0.000;0.000;2023-02-03T10:22:14;21.00;44.10
66708;DHT22;53622;0.000;0.000;2023-02-03T10:24:47;21.00;44.20
66708;DHT22;53622;0.000;0.000;2023-02-03T10:27:19;21.00;44.10
66708;DHT22;53622;0.000;0.000;2023-02-03T10:29:54;21.00;44.20
66708;DHT22;53622;0.000;0.000;2023-02-03T10:32:27;20.90;44.20
66708;DHT22;53622;0.000;0.000;2023-02-03T10:34:57;20.90;44.30
66708;DHT22;53622;0.000;0.000;2023-02-03T10:37:29;20.90;44.30
66708;DHT22;53622;0.000;0.000;2023-02-03T10:40:01;20.90;44.30
66708;DHT22;53622;0.000;0.000;2023-02-03T10:42:32;20.90;44.50
66708;DHT22;53622;0.000;0.000;2023-02-03T10:45:16;20.90;44.50
66708;DHT22;53622;0.000;0.000;2023-02-03T10:47:50;20.90;44.50
66708;DHT22;53622;0.000;0.000;2023-02-03T10:50:22;20.90;44.30
66708;DHT22;53622;0.000;0.000;2023-02-03T10:53:20;20.90;44.40
66708;DHT22;53622;0.000;0.000;2023-02-03T10:55:58;20.90;44.40
66708;DHT22;53622;0.000;0.000;2023-02-03T10:58:30;20.90;44.60
66708;DHT22;53622;0.000;0.000;2023-02-03T11:01:08;20.90;44.60
66708;DHT22;53622;0.000;0.000;2023-02-03T11:03:41;20.90;44.60
66708;DHT22;53622;0.000;0.000;2023-02-03T11:06:13;21.00;44.50
66708;DHT22;53622;0.000;0.000;2023-02-03T11:08:44;21.00;44.50
66708;DHT22;53622;0.000;0.000;2023-02-03T11:11:18;21.00;44.40
66708;DHT22;53622;0.000;0.000;2023-02-03T11:13:53;21.10;44.40
66708;DHT22;53622;0.000;0.000;2023-02-03T11:16:22;21.10;44.30
66708;DHT22;53622;0.000;0.000;2023-02-03T11:18:58;21.10;44.30
66708;DHT22;53622;0.000;0.000;2023-02-03T11:21:31;21.10;44.30
66708;DHT22;53622;0.000;0.000;2023-02-03T11:24:03;21.20;44.30
66708;DHT22;53622;0.000;0.000;2023-02-03T11:26:36;21.20;44.40
66708;DHT22;53622;0.000;0.000;2023-02-03T11:29:15;21.20;44.30
66708;DHT22;53622;0.000;0.000;2023-02-03T11:31:50;21.30;44.00
66708;DHT22;53622;0.000;0.000;2023-02-03T11:34:24;21.40;44.00
66708;DHT22;53622;0.000;0.000;2023-02-03T11:36:55;21.40;44.20
66708;DHT22;53622;0.000;0.000;2023-02-03T11:39:26;21.50;44.50
66708;DHT22;53622;0.000;0.000;2023-02-03T11:41:56;21.50;44.70
66708;DHT22;53622;0.000;0.000;2023-02-03T11:44:26;21.60;45.00
66708;DHT22;53622;0.000;0.000;2023-02-03T11:47:01;21.70;45.30
66708;DHT22;53622;0.000;0.000;2023-02-03T11:50:00;21.80;46.30
66708;DHT22;53622;0.000;0.000;2023-02-03T11:53:03;21.80;46.00
66708;DHT22;53622;0.000;0.000;2023-02-03T11:55:44;21.80;46.50
66708;DHT22;53622;0.000;0.000;2023-02-03T11:58:32;21.80;46.60
66708;DHT22;53622;0.000;0.000;2023-02-03T12:01:12;21.90;46.60
66708;DHT22;53622;0.000;0.000;2023-02-03T12:04:20;21.90;46.10
66708;DHT22;53622;0.000;0.000;2023-02-03T12:07:18;21.80;46.10
66708;DHT22;53622;0.000;0.000;2023-02-03T12:09:53;21.80;46.30
66708;DHT22;53622;0.000;0.000;2023-02-03T12:12:47;21.90;46.10
66708;DHT22;53622;0.000;0.000;2023-02-03T12:15:31;21.80;46.00
66708;DHT22;53622;0.000;0.000;2023-02-03T12:18:18;21.90;46.20
66708;DHT22;53622;0.000;0.000;2023-02-03T12:21:03;21.90;45.70
66708;DHT22;53622;0.000;0.000;2023-02-03T12:23:47;21.90;45.70
66708;DHT22;53622;0.000;0.000;2023-02-03T12:26:22;21.80;45.20
66708;DHT22;53622;0.000;0.000;2023-02-03T12:29:00;21.60;45.00
66708;DHT22;53622;0.000;0.000;2023-02-03T12:31:35;21.50;45.40
66708;DHT22;53622;0.000;0.000;2023-02-03T12:34:14;21.50;45.60
66708;DHT22;53622;0.000;0.000;2023-02-03T12:36:49;21.40;45.40
66708;DHT22;53622;0.000;0.000;2023-02-03T12:39:25;21.40;45.30
66708;DHT22;53622;0.000;0.000;2023-02-03T12:42:01;21.40;45.20
66708;DHT22;53622;0.000;0.000;2023-02-03T12:44:34;21.40;45.10
66708;DHT22;53622;0.000;0.000;2023-02-03T12:47:11;21.40;45.10
66708;DHT22;53622;0.000;0.000;2023-02-03T12:49:45;21.40;45.00
66708;DHT22;53622;0.000;0.000;2023-02-03T12:52:21;21.40;45.00
66708;DHT22;53622;0.000;0.000;2023-02-03T12:54:58;21.50;45.00
66708;DHT22;53622;0.000;0.000;2023-02-03T12:57:34;21.50;44.90
66708;DHT22;53622;0.000;0.000;2023-02-03T13:00:18;21.40;44.90
66708;DHT22;53622;0.000;0.000;2023-02-03T13:02:59;21.50;44.90
66708;DHT22;53622;0.000;0.000;2023-02-03T13:05:37;21.50;44.90
66708;DHT22;53622;0.000;0.000;2023-02-03T13:08:15;21.50;44.90
66708;DHT22;53622;0.000;0.000;2023-02-03T13:10:49;21.50;44.90
66708;DHT22;53622;0.000;0.000;2023-02-03T13:13:28;21.50;44.90
66708;DHT22;53622;0.000;0.000;2023-02-03T13:16:00;21.40;44.80
66708;DHT22;53622;0.000;0.000;2023-02-03T13:18:33;21.40;44.80
66708;DHT22;53622;0.000;0.000;2023-02-03T13:21:03;21.50;44.90
66708;DHT22;53622;0.000;0.000;2023-02-03T13:23:32;21.40;44.70
66708;DHT22;53622;0.000;0.000;2023-02-03T13:26:40;21.30;44.00
66708;DHT22;53622;0.000;0.000;2023-02-03T13:32:41;21.40;44.70
66708;DHT22;53622;0.000;0.000;2023-02-03T13:41:21;21.50;44.90
66708;DHT22;53622;0.000;0.000;2023-02-03T13:43:56;21.50;45.00
66708;DHT22;53622;0.000;0.000;2023-02-03T13:46:28;21.50;45.00
66708;DHT22;53622;0.000;0.000;2023-02-03T13:49:00;21.50;44.90
66708;DHT22;53622;0.000;0.000;2023-02-03T13:51:33;21.50;44.90
66708;DHT22;53622;0.000;0.000;2023-02-03T13:54:05;21.60;45.00
66708;DHT22;53622;0.000;0.000;2023-02-03T13:56:38;21.60;45.00
66708;DHT22;53622;0.000;0.000;2023-02-03T13:59:27;21.60;44.90
66708;DHT22;53622;0.000;0.000;2023-02-03T14:05:38;21.60;44.80
66708;DHT22;53622;0.000;0.000;2023-02-03T14:11:41;21.60;45.00
66708;DHT22;53622;0.000;0.000;2023-02-03T14:14:44;21.50;44.90
66708;DHT22;53622;0.000;0.000;2023-02-03T14:17:55;21.60;44.90
66708;DHT22;53622;0.000;0.000;2023-02-03T14:20:49;21.50;44.80
66708;DHT22;53622;0.000;0.000;2023-02-03T14:23:27;21.50;44.90
66708;DHT22;53622;0.000;0.000;2023-02-03T14:26:02;21.50;44.90
66708;DHT22;53622;0.000;0.000;2023-02-03T14:28:39;21.40;45.00
66708;DHT22;53622;0.000;0.000;2023-02-03T14:31:12;21.50;45.20
66708;DHT22;53622;0.000;0.000;2023-02-03T14:34:01;21.60;45.00
66708;DHT22;53622;0.000;0.000;2023-02-03T14:36:42;21.60;45.00
66708;DHT22;53622;0.000;0.000;2023-02-03T14:39:45;21.60;45.50
66708;DHT22;53622;0.000;0.000;2023-02-03T14:45:38;21.70;44.70
66708;DHT22;53622;0.000;0.000;2023-02-03T14:48:31;21.80;44.60
66708;DHT22;53622;0.000;0.000;2023-02-03T14:51:11;21.80;44.60
66708;DHT22;53622;0.000;0.000;2023-02-03T14:53:52;21.80;44.50
66708;DHT22;53622;0.000;0.000;2023-02-03T14:56:38;21.90;44.50
66708;DHT22;53622;0.000;0.000;2023-02-03T14:59:29;21.90;44.50
66708;DHT22;53622;0.000;0.000;2023-02-03T15:02:11;21.90;44.40
66708;DHT22;53622;0.000;0.000;2023-02-03T15:04:42;21.90;44.40
66708;DHT22;53622;0.000;0.000;2023-02-03T15:07:36;21.90;44.50
66708;DHT22;53622;0.000;0.000;2023-02-03T15:10:13;21.90;44.50
66708;DHT22;53622;0.000;0.000;2023-02-03T15:12:46;21.90;44.50
66708;DHT22;53622;0.000;0.000;2023-02-03T15:15:20;21.90;44.50
66708;DHT22;53622;0.000;0.000;2023-02-03T15:17:53;21.90;44.50
66708;DHT22;53622;0.000;0.000;2023-02-03T15:20:32;21.80;44.50
66708;DHT22;53622;0.000;0.000;2023-02-03T15:23:15;21.80;44.50
66708;DHT22;53622;0.000;0.000;2023-02-03T15:25:52;21.80;44.50
66708;DHT22;53622;0.000;0.000;2023-02-03T15:28:23;21.80;44.60
66708;DHT22;53622;0.000;0.000;2023-02-03T15:30:56;21.80;44.30
66708;DHT22;53622;0.000;0.000;2023-02-03T15:33:29;21.70;44.20
66708;DHT22;53622;0.000;0.000;2023-02-03T15:36:02;21.70;44.40
66708;DHT22;53622;0.000;0.000;2023-02-03T15:38:35;21.80;44.60
66708;DHT22;53622;0.000;0.000;2023-02-03T15:41:08;21.80;44.50
66708;DHT22;53622;0.000;0.000;2023-02-03T15:43:42;21.70;44.50
66708;DHT22;53622;0.000;0.000;2023-02-03T15:46:15;21.70;44.50
66708;DHT22;53622;0.000;0.000;2023-02-03T15:48:50;21.70;44.60
66708;DHT22;53622;0.000;0.000;2023-02-03T15:51:23;21.60;44.50
66708;DHT22;53622;0.000;0.000;2023-02-03T15:53:57;21.60;44.70
66708;DHT22;53622;0.000;0.000;2023-02-03T15:56:33;21.60;44.80
66708;DHT22;53622;0.000;0.000;2023-02-03T15:59:05;21.60;44.80
66708;DHT22;53622;0.000;0.000;2023-02-03T16:01:45;21.60;44.70
66708;DHT22;53622;0.000;0.000;2023-02-03T16:04:16;21.70;44.60
66708;DHT22;53622;0.000;0.000;2023-02-03T16:06:47;21.70;44.50
66708;DHT22;53622;0.000;0.000;2023-02-03T16:09:29;21.70;44.40
66708;DHT22;53622;0.000;0.000;2023-02-03T16:12:04;21.70;44.40
66708;DHT22;53622;0.000;0.000;2023-02-03T16:14:35;21.70;44.30
66708;DHT22;53622;0.000;0.000;2023-02-03T16:17:04;21.70;44.30
66708;DHT22;53622;0.000;0.000;2023-02-03T16:19:35;21.70;44.30
66708;DHT22;53622;0.000;0.000;2023-02-03T16:22:26;21.70;44.00
66708;DHT22;53622;0.000;0.000;2023-02-03T16:25:12;21.60;44.00
66708;DHT22;53622;0.000;0.000;2023-02-03T16:27:43;21.60;44.50
66708;DHT22;53622;0.000;0.000;2023-02-03T16:30:22;21.70;44.50
66708;DHT22;53622;0.000;0.000;2023-02-03T16:33:15;21.70;44.00
66708;DHT22;53622;0.000;0.000;2023-02-03T16:36:10;21.60;44.30
66708;DHT22;53622;0.000;0.000;2023-02-03T16:38:57;21.70;44.40
66708;DHT22;53622;0.000;0.000;2023-02-03T16:41:46;21.80;44.30
66708;DHT22;53622;0.000;0.000;2023-02-03T16:44:33;21.90;44.50
66708;DHT22;53622;0.000;0.000;2023-02-03T16:47:23;21.80;44.50
66708;DHT22;53622;0.000;0.000;2023-02-03T16:50:15;21.90;45.20
66708;DHT22;53622;0.000;0.000;2023-02-03T16:53:11;21.80;45.20